Time;durP1;ratioP1;P1;durP2;ratioP2;P2;SDS_P1;SDS_P2;PMS_P1;PMS_P2;Temp;Humidity;BMP_temperature;BMP_pressure;BME280_temperature;BME280_humidity;BME280_pressure;Samples;Min_cycle;Max_cycle;Signal;HPM_P1;HPM_P2
2021/01/22 00:01:59;;;;;;;;;;;;;;;17.52;63.88;100135.28;4951125;28;855;-67
2021/01/22 00:04:29;;;;;;;;;;;;;;;17.53;64.09;100125.59;4949625;29;1233;-67
2021/01/22 00:06:56;;;;;;;;;;;;;;;17.51;64.06;100119.59;4951236;29;800;-66
2021/01/22 00:09:22;;;;;;;;;;;;;;;17.48;63.98;100118.81;4951063;28;1976;-68
2021/01/22 00:11:50;;;;;;;;;;;;;;;17.47;64.21;100108.41;4950787;29;815;-66
2021/01/22 00:14:16;;;;;;;;;;;;;;;17.51;64.25;100104.63;4950804;28;1305;-66
2021/01/22 00:16:43;;;;;;;;;;;;;;;17.51;64.31;100098.53;4950961;29;874;-65
2021/01/22 00:19:10;;;;;;;;;;;;;;;17.47;63.93;100098.72;4934056;29;1171;-66
2021/01/22 00:21:37;;;;;;;;;;;;;;;17.45;64.31;100091.81;4950777;28;803;-66
2021/01/22 00:24:03;;;;;;;;;;;;;;;17.49;63.86;100101.25;4933344;29;1404;-68
2021/01/22 00:26:30;;;;;;;;;;;;;;;17.47;63.80;100089.97;4950768;29;780;-67
2021/01/22 00:28:58;;;;;;;;;;;;;;;17.46;63.90;100091.75;4950270;29;1966;-68
2021/01/22 00:31:25;;;;;;;;;;;;;;;17.47;64.08;100079.44;4950339;29;1035;-68
2021/01/22 00:33:51;;;;;;;;;;;;;;;17.50;64.31;100076.59;4933952;29;1230;-67
2021/01/22 00:36:17;;;;;;;;;;;;;;;17.49;64.22;100082.81;4950777;29;886;-67
2021/01/22 00:38:44;;;;;;;;;;;;;;;17.47;64.00;100077.66;4949365;28;1275;-67
2021/01/22 00:41:10;;;;;;;;;;;;;;;17.47;64.12;100077.66;4933371;29;1315;-67
2021/01/22 00:43:37;;;;;;;;;;;;;;;17.45;64.33;100076.88;4932463;29;1320;-68
2021/01/22 00:46:03;;;;;;;;;;;;;;;17.44;64.03;100061.19;4950779;29;1130;-68
2021/01/22 00:48:36;;;;;;;;;;;;;;;17.42;63.95;100068.31;4951074;29;1394;-66
2021/01/22 00:51:02;;;;;;;;;;;;;;;17.42;63.91;100057.78;4933572;29;1984;-66
2021/01/22 00:53:29;;;;;;;;;;;;;;;17.42;64.12;100045.47;4951145;28;1253;-66
2021/01/22 00:55:55;;;;;;;;;;;;;;;17.45;63.94;100052.34;4950731;29;1050;-65
2021/01/22 00:58:21;;;;;;;;;;;;;;;17.44;63.87;100042.75;4950579;28;1240;-67
2021/01/22 01:00:48;;;;;;;;;;;;;;;17.44;63.95;100037.50;4950524;29;1051;-68
2021/01/22 01:03:14;;;;;;;;;;;;;;;17.42;63.83;100042.84;4950550;29;1253;-67
2021/01/22 01:05:40;;;;;;;;;;;;;;;17.43;64.47;100039.28;4950446;28;801;-67
2021/01/22 01:08:06;;;;;;;;;;;;;;;17.44;63.75;100037.50;4933390;29;1334;-67
2021/01/22 01:10:33;;;;;;;;;;;;;;;17.41;64.08;100033.28;4933072;29;1982;-67
2021/01/22 01:12:59;;;;;;;;;;;;;;;17.41;64.04;100040.31;4933348;29;1391;-67
2021/01/22 01:15:26;;;;;;;;;;;;;;;17.42;64.07;100042.00;4950309;28;873;-67
2021/01/22 01:17:52;;;;;;;;;;;;;;;17.42;63.87;100034.09;4950991;29;1383;-66
2021/01/22 01:20:18;;;;;;;;;;;;;;;17.40;63.83;100028.09;4950678;29;823;-66
2021/01/22 01:22:45;;;;;;;;;;;;;;;17.41;64.32;100027.16;4950815;28;1313;-66
2021/01/22 01:25:11;;;;;;;;;;;;;;;17.41;64.29;100025.38;4950799;29;934;-67
2021/01/22 01:27:37;;;;;;;;;;;;;;;17.40;63.86;100022.81;4950757;28;1233;-67
2021/01/22 01:30:06;;;;;;;;;;;;;;;17.38;63.84;100017.66;4932863;29;1969;-68
2021/01/22 01:32:33;;;;;;;;;;;;;;;17.40;63.83;100017.56;4917472;29;1282;-68
2021/01/22 01:35:01;;;;;;;;;;;;;;;17.41;63.86;100014.00;4950507;29;850;-67
2021/01/22 01:37:28;;;;;;;;;;;;;;;17.39;63.83;100014.06;4950444;29;1347;-67
2021/01/22 01:39:54;;;;;;;;;;;;;;;17.37;64.06;100020.38;4950259;29;844;-67
2021/01/22 01:42:20;;;;;;;;;;;;;;;17.36;63.79;100010.78;4952303;28;1332;-67
2021/01/22 01:44:47;;;;;;;;;;;;;;;17.38;63.79;100008.91;4953549;28;807;-67
2021/01/22 01:47:16;;;;;;;;;;;;;;;17.36;63.97;100010.78;4953346;28;1140;-67
2021/01/22 01:49:42;;;;;;;;;;;;;;;17.36;63.96;100010.78;4935666;29;1984;-67
2021/01/22 01:52:09;;;;;;;;;;;;;;;17.36;64.22;100011.63;4936368;29;1192;-67
2021/01/22 01:54:38;;;;;;;;;;;;;;;17.35;64.06;99998.59;4936468;29;1230;-67
2021/01/22 01:57:04;;;;;;;;;;;;;;;17.35;63.83;99995.94;4953325;28;1071;-67
2021/01/22 01:59:31;;;;;;;;;;;;;;;17.36;63.85;100003.72;4953199;29;1349;-67
2021/01/22 02:01:57;;;;;;;;;;;;;;;17.36;63.89;100010.78;4952132;29;1005;-67
2021/01/22 02:04:24;;;;;;;;;;;;;;;17.36;64.24;99994.97;4951772;29;1312;-67
2021/01/22 02:06:50;;;;;;;;;;;;;;;17.35;63.89;99991.53;4953212;29;1064;-67
2021/01/22 02:09:17;;;;;;;;;;;;;;;17.36;63.86;99984.47;4952800;29;1910;-67
2021/01/22 02:11:43;;;;;;;;;;;;;;;17.32;63.69;99977.72;4953154;28;1050;-67
2021/01/22 02:14:10;;;;;;;;;;;;;;;17.32;64.16;99981.19;4952802;29;1211;-67
2021/01/22 02:16:37;;;;;;;;;;;;;;;17.33;64.07;99972.34;4952578;29;1581;-67
2021/01/22 02:19:08;;;;;;;;;;;;;;;17.32;63.98;99977.72;4952901;29;1279;-67
2021/01/22 02:21:35;;;;;;;;;;;;;;;17.33;63.97;99974.13;4953002;29;1119;-67
2021/01/22 02:24:06;;;;;;;;;;;;;;;17.31;64.28;99966.34;4932160;29;1300;-67
2021/01/22 02:26:52;;;;;;;;;;;;;;;17.31;64.28;99960.22;4933899;29;1085;-67
2021/01/22 02:29:18;;;;;;;;;;;;;;;17.30;64.02;99954.09;4933312;29;1915;-67
2021/01/22 02:31:46;;;;;;;;;;;;;;;17.28;64.35;99948.09;4933176;29;1100;-67
2021/01/22 02:34:15;;;;;;;;;;;;;;;17.29;64.25;99948.94;4933696;29;1219;-67
2021/01/22 02:36:43;;;;;;;;;;;;;;;17.29;64.32;99935.78;4933887;29;908;-67
2021/01/22 02:39:10;;;;;;;;;;;;;;;17.26;64.05;99936.84;4933534;29;1233;-66
2021/01/22 02:41:40;;;;;;;;;;;;;;;17.31;64.27;99940.00;4933332;29;1030;-67
2021/01/22 02:44:08;;;;;;;;;;;;;;;17.30;64.23;99934.81;4933195;29;1226;-67
2021/01/22 02:46:35;;;;;;;;;;;;;;;17.28;64.16;99927.03;4926469;29;1038;-67
2021/01/22 02:49:02;;;;;;;;;;;;;;;17.28;64.27;99913.03;4915345;29;1906;-67
2021/01/22 02:51:28;;;;;;;;;;;;;;;17.28;64.26;99905.13;4933045;29;1096;-67
2021/01/22 02:53:57;;;;;;;;;;;;;;;17.27;64.30;99906.06;4932165;29;1234;-67
2021/01/22 02:56:44;;;;;;;;;;;;;;;17.26;64.50;99905.25;4933364;29;982;-67
2021/01/22 02:59:13;;;;;;;;;;;;;;;17.27;64.67;99913.97;4933013;29;1251;-66
2021/01/22 03:01:47;;;;;;;;;;;;;;;17.26;64.55;99909.66;4932085;29;1055;-66
2021/01/22 03:04:14;;;;;;;;;;;;;;;17.27;64.53;99882.38;4933078;29;1285;-67
2021/01/22 03:06:43;;;;;;;;;;;;;;;17.24;64.64;99865.00;4933090;29;1034;-66
2021/01/22 03:09:12;;;;;;;;;;;;;;;17.24;64.78;99891.31;4932754;29;1980;-66
2021/01/22 03:11:39;;;;;;;;;;;;;;;17.24;64.66;99877.31;4933085;29;1053;-66
2021/01/22 03:14:06;;;;;;;;;;;;;;;17.24;64.36;99867.63;4932971;29;1342;-66
2021/01/22 03:16:34;;;;;;;;;;;;;;;17.23;64.51;99865.97;4933033;29;1140;-67
2021/01/22 03:19:05;;;;;;;;;;;;;;;17.22;64.60;99858.16;4932978;29;1321;-67
2021/01/22 03:21:31;;;;;;;;;;;;;;;17.25;64.52;99850.06;4915841;29;1364;-66
2021/01/22 03:23:58;;;;;;;;;;;;;;;17.23;64.64;99831.75;4932568;29;1219;-66
2021/01/22 03:26:24;;;;;;;;;;;;;;;17.25;64.55;99843.00;4932564;29;1105;-65
2021/01/22 03:28:50;;;;;;;;;;;;;;;17.24;64.71;99840.47;4932527;29;1332;-66
2021/01/22 03:31:17;;;;;;;;;;;;;;;17.24;64.73;99829.94;4932320;29;1972;-67
2021/01/22 03:33:47;;;;;;;;;;;;;;;17.24;64.69;99828.16;4932215;29;1218;-67
2021/01/22 03:36:13;;;;;;;;;;;;;;;17.25;64.51;99844.78;4932423;29;1070;-67
2021/01/22 03:38:40;;;;;;;;;;;;;;;17.22;64.66;99839.72;4932364;29;1214;-67
2021/01/22 03:41:06;;;;;;;;;;;;;;;17.22;64.88;99839.72;4899317;29;1459;-67
2021/01/22 03:43:32;;;;;;;;;;;;;;;17.22;64.42;99840.56;4914405;29;1236;-67
2021/01/22 03:45:59;;;;;;;;;;;;;;;17.22;64.64;99830.06;4914690;29;1129;-66
2021/01/22 03:48:25;;;;;;;;;;;;;;;17.21;64.58;99830.13;4932062;29;1317;-67
2021/01/22 03:50:51;;;;;;;;;;;;;;;17.23;64.94;99812.47;4932071;29;1911;-67
2021/01/22 03:53:18;;;;;;;;;;;;;;;17.20;64.83;99799.53;4931973;29;1332;-66
2021/01/22 03:55:52;;;;;;;;;;;;;;;17.21;64.60;99799.41;4932070;29;1061;-66
2021/01/22 03:58:18;;;;;;;;;;;;;;;17.19;64.75;99810.97;4932073;29;1229;-66
2021/01/22 04:00:44;;;;;;;;;;;;;;;17.19;64.89;99792.56;4931713;29;1051;-66
2021/01/22 04:03:11;;;;;;;;;;;;;;;17.20;64.54;99794.25;4932126;29;1246;-66
2021/01/22 04:05:38;;;;;;;;;;;;;;;17.19;64.75;99796.03;4931971;29;811;-66
2021/01/22 04:08:05;;;;;;;;;;;;;;;17.21;64.67;99788.03;4931668;29;1347;-66
2021/01/22 04:10:31;;;;;;;;;;;;;;;17.18;65.02;99785.59;4915108;29;1946;-66
2021/01/22 04:12:57;;;;;;;;;;;;;;;17.17;65.11;99773.41;4930853;29;1296;-67
2021/01/22 04:15:23;;;;;;;;;;;;;;;17.18;65.18;99775.06;4932475;29;918;-66
2021/01/22 04:17:50;;;;;;;;;;;;;;;17.18;65.18;99767.16;4932478;29;1218;-67
2021/01/22 04:20:21;;;;;;;;;;;;;;;17.20;64.98;99755.63;4915653;29;808;-67
2021/01/22 04:22:48;;;;;;;;;;;;;;;17.18;65.00;99751.38;4932577;29;1266;-67
2021/01/22 04:25:17;;;;;;;;;;;;;;;17.17;64.96;99745.31;4932099;29;768;-68
2021/01/22 04:27:44;;;;;;;;;;;;;;;17.18;64.92;99751.38;4932241;29;1326;-66
2021/01/22 04:30:10;;;;;;;;;;;;;;;17.20;65.05;99736.34;4931816;29;1914;-67
2021/01/22 04:32:39;;;;;;;;;;;;;;;17.17;65.11;99741.81;4932058;29;1362;-66
2021/01/22 04:35:06;;;;;;;;;;;;;;;17.19;65.10;99726.75;4931799;29;840;-66
2021/01/22 04:37:32;;;;;;;;;;;;;;;17.16;65.04;99719.06;4931696;29;1237;-68
2021/01/22 04:39:58;;;;;;;;;;;;;;;17.16;64.93;99725.19;4931657;29;756;-67
2021/01/22 04:42:26;;;;;;;;;;;;;;;17.17;64.99;99719.00;4914411;29;1290;-66
2021/01/22 04:44:53;;;;;;;;;;;;;;;17.18;65.06;99725.06;4931658;29;792;-68
2021/01/22 04:47:23;;;;;;;;;;;;;;;17.18;64.87;99711.91;4932019;29;976;-67
2021/01/22 04:49:50;;;;;;;;;;;;;;;17.17;65.09;99724.25;4931446;29;1930;-67
2021/01/22 04:52:17;;;;;;;;;;;;;;;17.17;64.91;99719.00;4931556;29;1332;-67
2021/01/22 04:54:44;;;;;;;;;;;;;;;17.16;65.25;99716.44;4931210;29;1250;-67
2021/01/22 04:57:10;;;;;;;;;;;;;;;17.14;65.22;99719.19;4930933;29;1144;-67
2021/01/22 04:59:47;;;;;;;;;;;;;;;17.17;64.96;99708.47;4931316;29;1214;-68
2021/01/22 05:02:13;;;;;;;;;;;;;;;17.17;65.07;99702.34;4931738;29;1058;-67
2021/01/22 05:04:40;;;;;;;;;;;;;;;17.17;64.92;99699.72;4914321;29;1387;-67
2021/01/22 05:07:08;;;;;;;;;;;;;;;17.17;64.91;99699.72;4931710;29;1148;-66
2021/01/22 05:09:34;;;;;;;;;;;;;;;17.17;65.17;99690.03;4931041;29;1927;-66
2021/01/22 05:12:01;;;;;;;;;;;;;;;17.14;65.22;99684.97;4931649;29;1016;-67
2021/01/22 05:14:28;;;;;;;;;;;;;;;17.14;65.14;99684.13;4931352;29;1223;-67
2021/01/22 05:17:03;;;;;;;;;;;;;;;17.15;65.38;99680.53;4915985;29;1577;-67
2021/01/22 05:19:29;;;;;;;;;;;;;;;17.17;65.11;99670.78;4948581;29;1358;-67
2021/01/22 05:21:56;;;;;;;;;;;;;;;17.15;65.20;99680.53;4953560;28;1548;-67
2021/01/22 05:24:23;;;;;;;;;;;;;;;17.14;65.37;99669.19;4920687;29;1361;-68
2021/01/22 05:26:59;;;;;;;;;;;;;;;17.13;65.14;99656.97;4954015;29;1144;-67
2021/01/22 05:29:28;;;;;;;;;;;;;;;17.13;65.26;99666.66;4953727;28;1906;-67
2021/01/22 05:31:54;;;;;;;;;;;;;;;17.16;65.29;99654.13;4954040;28;1190;-66
2021/01/22 05:34:21;;;;;;;;;;;;;;;17.15;65.54;99647.16;4954132;29;1231;-67
2021/01/22 05:36:48;;;;;;;;;;;;;;;17.13;65.22;99645.59;4953925;29;1134;-67
2021/01/22 05:39:18;;;;;;;;;;;;;;;17.11;65.34;99634.34;4953368;29;1461;-67
2021/01/22 05:41:52;;;;;;;;;;;;;;;17.13;65.15;99619.28;4933198;29;1334;-68
2021/01/22 05:44:18;;;;;;;;;;;;;;;17.11;65.46;99605.41;4934688;29;1210;-67
2021/01/22 05:46:58;;;;;;;;;;;;;;;17.12;65.48;99588.66;4947701;29;1073;-67
2021/01/22 05:49:25;;;;;;;;;;;;;;;17.11;65.44;99584.34;4952661;29;1907;-68
2021/01/22 05:51:52;;;;;;;;;;;;;;;17.10;65.25;99580.03;4953354;29;1022;-66
2021/01/22 05:54:31;;;;;;;;;;;;;;;17.18;65.47;99586.44;4953312;29;1246;-67
2021/01/22 05:56:57;;;;;;;;;;;;;;;17.18;64.92;99581.19;4949110;28;2003;-68
2021/01/22 05:59:29;;;;;;;;;;;;;;;17.15;65.17;99551.59;4952585;28;1273;-68
2021/01/22 06:09:12;;;;;;;;;;;;;;;17.08;65.37;99488.06;4819120;29;1369;-66
2021/01/22 06:19:15;;;;;;;;;;;;;;;17.12;65.40;99470.22;4686471;30;1245;-65
2021/01/22 06:21:46;;;;;;;;;;;;;;;17.16;66.11;99461.19;4717805;30;1510;-66
2021/01/22 06:24:14;;;;;;;;;;;;;;;17.25;65.59;99450.00;4774257;29;1317;-68
2021/01/22 06:26:40;;;;;;;;;;;;;;;17.21;65.50;99424.84;4801128;29;913;-69
2021/01/22 06:29:08;;;;;;;;;;;;;;;17.17;65.54;99423.41;4793309;29;1220;-68
2021/01/22 06:31:36;;;;;;;;;;;;;;;17.14;65.49;99435.00;4800625;29;2029;-68
2021/01/22 06:34:04;;;;;;;;;;;;;;;17.23;65.40;99438.75;4865208;29;1199;-67
2021/01/22 06:36:31;;;;;;;;;;;;;;;17.27;65.57;99421.78;4874325;29;1054;-68
2021/01/22 06:39:00;;;;;;;;;;;;;;;17.36;65.35;99423.75;4874655;29;1247;-72
2021/01/22 06:41:27;;;;;;;;;;;;;;;17.29;65.27;99426.03;4874260;29;1200;-68
2021/01/22 06:43:56;;;;;;;;;;;;;;;17.24;65.63;99407.06;4885686;29;1231;-68
2021/01/22 06:46:25;;;;;;;;;;;;;;;17.37;65.97;99391.22;4933725;29;717;-69
2021/01/22 06:48:56;;;;;;;;;;;;;;;17.31;65.60;99368.00;4916320;29;1533;-71
2021/01/22 06:51:26;;;;;;;;;;;;;;;17.43;65.62;99369.72;4932157;29;1919;-72
2021/01/22 06:54:07;;;;;;;;;;;;;;;17.32;65.59;99372.31;4916031;29;1318;-73
2021/01/22 06:56:35;;;;;;;;;;;;;;;17.40;66.11;99370.78;4933113;29;804;-72
2021/01/22 06:59:24;;;;;;;;;;;;;;;17.50;65.70;99368.34;4931657;29;1273;-67
2021/01/22 07:01:51;;;;;;;;;;;;;;;17.44;65.56;99376.69;4933002;29;787;-67
2021/01/22 07:04:30;;;;;;;;;;;;;;;17.35;65.75;99369.47;4933032;29;1461;-68
2021/01/22 07:07:01;;;;;;;;;;;;;;;17.30;66.09;99369.78;4932768;29;799;-68
2021/01/22 07:09:39;;;;;;;;;;;;;;;17.28;66.19;99378.72;4922651;29;1423;-67
2021/01/22 07:12:05;;;;;;;;;;;;;;;17.26;66.23;99368.34;4928723;29;798;-68
2021/01/22 07:14:36;;;;;;;;;;;;;;;17.25;66.12;99344.75;4897851;29;1258;-67
2021/01/22 07:17:33;;;;;;;;;;;;;;;17.33;66.32;99348.50;4900342;29;779;-69
2021/01/22 07:20:01;;;;;;;;;;;;;;;17.39;65.88;99321.72;4896840;29;926;-69
2021/01/22 07:22:29;;;;;;;;;;;;;;;17.32;65.80;99304.72;4913998;29;1321;-68
2021/01/22 07:24:56;;;;;;;;;;;;;;;17.29;65.93;99325.16;4913632;29;908;-67
2021/01/22 07:27:22;;;;;;;;;;;;;;;17.29;65.64;99319.91;4913939;29;1274;-69
2021/01/22 07:30:07;;;;;;;;;;;;;;;17.30;66.06;99318.91;4932632;29;1903;-66
2021/01/22 07:32:34;;;;;;;;;;;;;;;17.27;65.60;99303.34;4932664;29;1386;-66
2021/01/22 07:35:01;;;;;;;;;;;;;;;17.23;65.64;99288.75;4932510;29;822;-67
2021/01/22 07:37:34;;;;;;;;;;;;;;;17.21;65.88;99269.59;4932690;29;1285;-67
2021/01/22 07:47:29;;;;;;;;;;;;;;;17.29;65.41;99262.00;4820917;29;1069;-68
2021/01/22 07:50:19;;;;;;;;;;;;;;;17.24;65.76;99250.94;4836047;29;1973;-66
2021/01/22 07:52:47;;;;;;;;;;;;;;;17.49;65.35;99237.66;4826300;29;1953;-64
2021/01/22 07:55:14;;;;;;;;;;;;;;;17.56;65.41;99202.06;4825736;29;970;-66
2021/01/22 07:57:43;;;;;;;;;;;;;;;17.47;65.51;99206.19;4820640;29;1373;-66
2021/01/22 08:00:52;;;;;;;;;;;;;;;17.32;65.38;99201.25;4820822;29;1892;-65
2021/01/22 08:03:21;;;;;;;;;;;;;;;17.32;65.55;99209.13;4833779;29;1436;-65
2021/01/22 08:05:47;;;;;;;;;;;;;;;17.31;65.54;99197.75;4833929;29;1158;-68
2021/01/22 08:08:16;;;;;;;;;;;;;;;17.30;65.81;99190.81;4834560;29;1259;-67
2021/01/22 08:10:43;;;;;;;;;;;;;;;17.34;66.59;99202.78;4835174;29;1911;-66
2021/01/22 08:13:15;;;;;;;;;;;;;;;17.40;65.45;99191.81;4835205;29;1288;-67
2021/01/22 08:15:44;;;;;;;;;;;;;;;17.31;65.67;99189.88;4835148;29;939;-67
2021/01/22 08:18:15;;;;;;;;;;;;;;;17.28;65.73;99168.19;4835036;29;1314;-66
2021/01/22 08:20:50;;;;;;;;;;;;;;;17.27;65.85;99216.50;4913720;29;1015;-66
2021/01/22 08:23:20;;;;;;;;;;;;;;;17.26;65.65;99217.47;4930883;29;1309;-66
2021/01/22 08:26:23;;;;;;;;;;;;;;;17.23;65.71;99270.34;4930062;29;914;-67
2021/01/22 08:28:55;;;;;;;;;;;;;;;17.25;65.87;99392.13;4930712;29;1257;-70
2021/01/22 08:31:22;;;;;;;;;;;;;;;17.28;65.95;99457.69;4931095;29;1906;-71
2021/01/22 08:33:49;;;;;;;;;;;;;;;17.38;65.01;99503.47;4931013;29;1246;-69
2021/01/22 08:36:15;;;;;;;;;;;;;;;17.41;64.73;99430.41;4931395;29;807;-69
2021/01/22 08:38:56;;;;;;;;;;;;;;;17.40;64.74;99383.13;4914082;29;1321;-69
2021/01/22 08:41:23;;;;;;;;;;;;;;;17.41;64.44;99387.44;4930653;29;834;-69
2021/01/22 08:43:50;;;;;;;;;;;;;;;17.43;64.21;99369.72;4929830;29;1322;-70
2021/01/22 08:46:18;;;;;;;;;;;;;;;17.49;64.08;99346.44;4931217;29;1084;-69
2021/01/22 08:48:44;;;;;;;;;;;;;;;17.51;64.19;99335.78;4898372;29;1266;-70
2021/01/22 08:51:11;;;;;;;;;;;;;;;17.55;63.81;99345.16;4914198;29;1968;-70
2021/01/22 08:53:51;;;;;;;;;;;;;;;17.58;63.79;99320.41;4934342;29;1212;-69
2021/01/22 08:56:18;;;;;;;;;;;;;;;17.58;63.69;99363.38;4935350;29;1099;-70
2021/01/22 08:59:03;;;;;;;;;;;;;;;17.60;63.57;99353.56;4934815;29;1308;-70
2021/01/22 09:01:48;;;;;;;;;;;;;;;17.64;63.62;99362.94;4935147;29;768;-70
2021/01/22 09:04:31;;;;;;;;;;;;;;;17.66;63.49;99342.56;4934888;29;1381;-71
2021/01/22 09:06:58;;;;;;;;;;;;;;;17.68;63.39;99313.50;4934423;29;772;-70
2021/01/22 09:09:35;;;;;;;;;;;;;;;17.69;63.35;99292.31;4901940;29;1302;-71
2021/01/22 09:12:18;;;;;;;;;;;;;;;17.72;63.52;99265.75;4934942;29;1903;-70
2021/01/22 09:14:45;;;;;;;;;;;;;;;17.74;63.18;99226.97;4934372;29;1147;-71
2021/01/22 09:17:38;;;;;;;;;;;;;;;17.75;63.15;99194.41;4916925;29;681;-70
2021/01/22 09:20:16;;;;;;;;;;;;;;;17.75;63.44;99122.47;4914040;29;1325;-70
2021/01/22 09:22:44;;;;;;;;;;;;;;;17.78;63.20;99091.44;4934458;29;1214;-70
2021/01/22 09:25:15;;;;;;;;;;;;;;;17.78;63.01;99075.66;4934930;29;1173;-70
2021/01/22 09:27:42;;;;;;;;;;;;;;;17.82;62.92;99192.13;4917384;29;1407;-70
2021/01/22 09:30:12;;;;;;;;;;;;;;;17.86;62.89;99225.19;4934355;29;1911;-70
2021/01/22 09:32:40;;;;;;;;;;;;;;;17.87;62.68;99237.44;4934120;29;1347;-70
2021/01/22 09:35:07;;;;;;;;;;;;;;;17.86;62.87;99252.38;4926723;29;1125;-70
2021/01/22 09:37:33;;;;;;;;;;;;;;;17.88;62.82;99271.53;4934534;29;1359;-71
2021/01/22 09:40:01;;;;;;;;;;;;;;;17.86;62.95;99262.06;4916976;29;1202;-70
2021/01/22 09:42:27;;;;;;;;;;;;;;;17.86;62.62;99262.91;4933875;29;1209;-69
2021/01/22 09:44:53;;;;;;;;;;;;;;;17.88;62.99;99245.19;4916025;29;1233;-69
2021/01/22 09:47:20;;;;;;;;;;;;;;;17.89;62.34;99225.81;4934022;29;1182;-70
2021/01/22 09:49:46;;;;;;;;;;;;;;;17.91;62.70;99223.03;4934474;29;1910;-70
2021/01/22 09:52:14;;;;;;;;;;;;;;;17.92;62.43;99235.25;4934042;29;830;-70
2021/01/22 09:54:41;;;;;;;;;;;;;;;17.92;62.61;99216.81;4934275;29;1309;-71
2021/01/22 09:57:08;;;;;;;;;;;;;;;17.92;62.51;99209.75;4916826;29;756;-70
2021/01/22 09:59:35;;;;;;;;;;;;;;;17.92;62.47;99204.50;4932580;29;1167;-70
2021/01/22 10:02:03;;;;;;;;;;;;;;;17.94;62.57;99207.00;4933498;29;808;-70
2021/01/22 10:04:29;;;;;;;;;;;;;;;17.95;62.29;99225.34;4932758;29;1400;-70
2021/01/22 10:06:55;;;;;;;;;;;;;;;17.95;62.34;99209.53;4932937;29;795;-71
2021/01/22 10:09:22;;;;;;;;;;;;;;;17.96;62.26;99223.53;4933672;29;1222;-71
2021/01/22 10:11:49;;;;;;;;;;;;;;;17.97;62.25;99227.84;4933622;29;1964;-71
2021/01/22 10:14:35;;;;;;;;;;;;;;;17.98;62.51;99213.72;4931148;29;1307;-70
2021/01/22 10:17:03;;;;;;;;;;;;;;;18.00;62.38;99217.06;4932115;29;1486;-70
2021/01/22 10:19:33;;;;;;;;;;;;;;;17.99;62.26;99216.22;4931937;29;1596;-70
2021/01/22 10:21:59;;;;;;;;;;;;;;;18.01;61.90;99235.41;4920346;29;1051;-70
2021/01/22 10:24:26;;;;;;;;;;;;;;;18.03;61.73;99238.75;4923841;29;1243;-69
2021/01/22 10:26:53;;;;;;;;;;;;;;;18.04;62.18;99234.31;4915302;29;807;-70
2021/01/22 10:29:19;;;;;;;;;;;;;;;18.06;62.13;99237.66;4933535;29;1220;-70
2021/01/22 10:31:45;;;;;;;;;;;;;;;18.08;61.96;99242.84;4933469;29;1914;-70
2021/01/22 10:34:12;;;;;;;;;;;;;;;18.08;62.19;99245.47;4933155;29;1240;-69
2021/01/22 10:36:38;;;;;;;;;;;;;;;18.09;61.85;99240.06;4932397;29;1639;-70
2021/01/22 10:39:04;;;;;;;;;;;;;;;18.10;62.21;99236.47;4913439;29;1312;-71
2021/01/22 10:41:31;;;;;;;;;;;;;;;18.14;62.00;99242.34;4931138;29;1290;-70
2021/01/22 10:43:57;;;;;;;;;;;;;;;18.12;62.01;99236.38;4932788;29;1277;-70
2021/01/22 10:46:24;;;;;;;;;;;;;;;18.12;61.75;99236.38;4933147;29;1191;-71
2021/01/22 10:48:50;;;;;;;;;;;;;;;18.13;61.82;99222.22;4915524;29;1335;-70
2021/01/22 10:51:17;;;;;;;;;;;;;;;18.15;62.06;99230.88;4915643;29;1919;-71
2021/01/22 10:53:43;;;;;;;;;;;;;;;18.16;62.07;99237.78;4932883;29;1238;-70
2021/01/22 10:56:09;;;;;;;;;;;;;;;18.15;61.77;99205.31;4931578;29;831;-70
2021/01/22 10:58:37;;;;;;;;;;;;;;;18.16;62.13;99222.81;4932858;29;1339;-70
2021/01/22 11:01:03;;;;;;;;;;;;;;;18.18;62.21;99214.81;4932481;29;1308;-70
2021/01/22 11:03:47;;;;;;;;;;;;;;;18.18;61.94;99220.09;4932550;29;1267;-70
2021/01/22 11:06:43;;;;;;;;;;;;;;;18.17;62.05;99208.69;4932345;29;1176;-69
2021/01/22 11:09:09;;;;;;;;;;;;;;;18.18;62.36;99204.28;4915602;29;1317;-72
2021/01/22 11:11:36;;;;;;;;;;;;;;;18.18;62.19;99207.72;4932592;29;1915;-70
2021/01/22 11:14:02;;;;;;;;;;;;;;;18.19;62.25;99200.66;4932083;29;1221;-70
2021/01/22 11:16:28;;;;;;;;;;;;;;;18.19;62.03;99193.59;4915157;29;1071;-70
2021/01/22 11:19:06;;;;;;;;;;;;;;;18.21;62.04;99182.94;4932528;29;1285;-70
2021/01/22 11:21:33;;;;;;;;;;;;;;;18.20;62.02;99187.38;4932546;29;1117;-69
2021/01/22 11:24:00;;;;;;;;;;;;;;;18.21;62.01;99177.69;4932218;29;1210;-69
2021/01/22 11:26:27;;;;;;;;;;;;;;;18.19;61.77;99169.88;4915338;29;1255;-70
2021/01/22 11:28:54;;;;;;;;;;;;;;;18.21;62.15;99180.31;4932199;29;1376;-70
2021/01/22 11:31:20;;;;;;;;;;;;;;;18.21;62.14;99183.75;4932178;29;1931;-71
2021/01/22 11:33:46;;;;;;;;;;;;;;;18.21;62.08;99196.13;4932033;29;1317;-71
2021/01/22 11:36:13;;;;;;;;;;;;;;;18.22;61.70;99206.53;4931976;29;1138;-70
2021/01/22 11:38:39;;;;;;;;;;;;;;;18.21;61.90;99204.84;4914430;29;1301;-70
2021/01/22 11:41:05;;;;;;;;;;;;;;;18.23;61.32;99217.91;4931761;29;1038;-69
2021/01/22 11:43:34;;;;;;;;;;;;;;;18.20;61.79;99220.78;4930082;29;1277;-69
2021/01/22 11:46:01;;;;;;;;;;;;;;;18.23;61.51;99224.03;4914905;29;1089;-71
2021/01/22 11:48:31;;;;;;;;;;;;;;;18.21;61.56;99225.94;4931611;29;1250;-71
2021/01/22 11:50:57;;;;;;;;;;;;;;;18.22;61.68;99224.97;4931842;29;1907;-71
2021/01/22 11:53:23;;;;;;;;;;;;;;;18.29;59.95;99213.00;4931825;29;1226;-72
2021/01/22 11:55:50;;;;;;;;;;;;;;;18.30;58.26;99208.56;4931507;29;1135;-72
2021/01/22 11:58:16;;;;;;;;;;;;;;;18.28;57.15;99210.47;4914723;29;1249;-69
2021/01/22 12:00:44;;;;;;;;;;;;;;;18.27;56.11;99229.91;4932117;29;1068;-68
2021/01/22 12:03:12;;;;;;;;;;;;;;;18.19;55.66;99201.50;4931117;29;1482;-71
2021/01/22 12:05:39;;;;;;;;;;;;;;;18.23;55.20;99192.41;4930386;29;772;-69
2021/01/22 12:08:22;;;;;;;;;;;;;;;18.33;55.77;99190.69;4931484;29;1348;-69
2021/01/22 12:10:49;;;;;;;;;;;;;;;18.35;53.81;99180.03;4930130;29;1977;-70
2021/01/22 12:13:15;;;;;;;;;;;;;;;18.28;56.26;99177.06;4931619;29;1242;-68
2021/01/22 12:15:42;;;;;;;;;;;;;;;18.37;54.17;99188.66;4931257;29;865;-69
2021/01/22 12:18:08;;;;;;;;;;;;;;;18.43;55.64;99178.47;4931416;29;1250;-69
2021/01/22 12:20:35;;;;;;;;;;;;;;;18.54;52.88;99167.09;4931276;29;776;-68
2021/01/22 12:23:01;;;;;;;;;;;;;;;18.46;53.45;99167.69;4931910;29;1289;-68
2021/01/22 12:25:28;;;;;;;;;;;;;;;18.41;52.95;99154.03;4927525;29;1545;-67
2021/01/22 12:27:55;;;;;;;;;;;;;;;18.41;52.78;99134.75;4921033;29;1450;-68
2021/01/22 12:30:21;;;;;;;;;;;;;;;18.43;51.47;99124.91;4925163;29;1927;-68
2021/01/22 12:32:47;;;;;;;;;;;;;;;18.41;52.02;99118.91;4931665;29;1277;-68
2021/01/22 12:35:16;;;;;;;;;;;;;;;18.42;52.04;99133.78;4931480;29;823;-68
2021/01/22 12:37:42;;;;;;;;;;;;;;;18.43;50.70;99130.16;4914485;29;1297;-69
2021/01/22 12:40:08;;;;;;;;;;;;;;;18.35;51.17;99122.91;4931983;29;787;-68
2021/01/22 12:42:35;;;;;;;;;;;;;;;18.41;52.25;99146.13;4929535;29;1323;-70
2021/01/22 12:45:01;;;;;;;;;;;;;;;18.49;51.51;99161.34;4911076;29;1232;-68
2021/01/22 12:47:31;;;;;;;;;;;;;;;18.45;52.29;99138.81;4912586;29;1356;-68
2021/01/22 12:49:58;;;;;;;;;;;;;;;18.43;51.16;99161.81;4912530;29;1141;-68
2021/01/22 12:52:28;;;;;;;;;;;;;;;18.44;50.92;99177.53;4910835;29;1990;-68
2021/01/22 12:54:55;;;;;;;;;;;;;;;18.44;51.22;99168.75;4894804;29;1069;-69
2021/01/22 12:57:21;;;;;;;;;;;;;;;18.46;51.85;99174.75;4911608;29;1383;-67
2021/01/22 12:59:47;;;;;;;;;;;;;;;18.44;50.94;99180.16;4910703;29;1238;-66
2021/01/22 13:02:13;;;;;;;;;;;;;;;18.47;50.64;99186.97;4912160;29;1182;-67
2021/01/22 13:04:40;;;;;;;;;;;;;;;18.43;52.13;99188.16;4893467;29;1505;-68
2021/01/22 13:07:06;;;;;;;;;;;;;;;18.53;49.99;99160.16;4911756;29;892;-70
2021/01/22 13:09:33;;;;;;;;;;;;;;;18.66;51.85;99167.91;4910846;29;1319;-65
2021/01/22 13:11:59;;;;;;;;;;;;;;;18.60;51.07;99156.06;4908052;29;1985;-68
2021/01/22 13:14:25;;;;;;;;;;;;;;;18.59;50.15;99135.91;4910127;29;1272;-69
2021/01/22 13:16:51;;;;;;;;;;;;;;;18.53;51.32;99125.88;4909628;29;1155;-69
2021/01/22 13:19:18;;;;;;;;;;;;;;;18.55;50.30;99139.75;4912480;29;1219;-69
2021/01/22 13:21:45;;;;;;;;;;;;;;;18.54;50.69;99143.38;4912895;29;1411;-72
2021/01/22 13:24:11;;;;;;;;;;;;;;;18.59;50.48;99149.09;4904081;29;1365;-67
2021/01/22 13:26:39;;;;;;;;;;;;;;;18.62;50.64;99106.66;4912119;29;1046;-70
2021/01/22 13:29:06;;;;;;;;;;;;;;;18.66;52.02;99166.13;4918455;29;1542;-66